createdAt,value
2018-06-24T00:00:38.394Z,15.17
2018-06-24T00:01:38.326Z,15.15
2018-06-24T00:02:38.303Z,15.12
2018-06-24T00:03:38.483Z,15.09
2018-06-24T00:04:38.476Z,15.02
2018-06-24T00:05:38.327Z,15
2018-06-24T00:06:38.309Z,15.01
2018-06-24T00:07:38.324Z,14.97
2018-06-24T00:08:38.396Z,14.86
2018-06-24T00:09:38.315Z,14.8
2018-06-24T00:10:38.355Z,14.67
2018-06-24T00:11:38.331Z,14.45
2018-06-24T00:12:38.311Z,14.38
2018-06-24T00:13:38.354Z,14.22
2018-06-24T00:14:38.388Z,14.12
2018-06-24T00:15:38.345Z,14.17
2018-06-24T00:16:38.482Z,14.18
2018-06-24T00:17:38.305Z,14.27
2018-06-24T00:18:38.416Z,14.31
2018-06-24T00:19:38.361Z,14.33
2018-06-24T00:20:38.313Z,14.36
2018-06-24T00:21:38.349Z,14.39
2018-06-24T00:22:38.320Z,14.4
2018-06-24T00:23:38.344Z,14.46
2018-06-24T00:24:38.336Z,14.48
2018-06-24T00:25:38.332Z,14.51
2018-06-24T00:26:38.331Z,14.55
2018-06-24T00:27:38.322Z,14.55
2018-06-24T00:28:38.384Z,14.62
2018-06-24T00:29:38.349Z,14.56
2018-06-24T00:30:38.454Z,14.56
2018-06-24T00:31:38.488Z,14.59
2018-06-24T00:32:38.317Z,14.64
2018-06-24T00:33:38.308Z,14.6
2018-06-24T00:34:38.456Z,14.64
2018-06-24T00:35:38.345Z,14.6
2018-06-24T00:36:38.324Z,14.6
2018-06-24T00:37:38.323Z,14.63
2018-06-24T00:38:38.353Z,14.64
2018-06-24T00:39:38.345Z,14.66
2018-06-24T00:40:38.334Z,14.69
2018-06-24T00:41:38.364Z,14.7
2018-06-24T00:42:38.328Z,14.7
2018-06-24T00:43:38.365Z,14.73
2018-06-24T00:44:38.332Z,14.74
2018-06-24T00:45:38.342Z,14.74
2018-06-24T00:46:38.342Z,14.73
2018-06-24T00:47:38.348Z,14.7
2018-06-24T00:48:38.350Z,14.7
2018-06-24T00:49:38.347Z,14.72
2018-06-24T00:50:38.356Z,14.73
2018-06-24T00:51:38.321Z,14.77
2018-06-24T00:52:38.332Z,14.74
2018-06-24T00:53:38.459Z,14.73
2018-06-24T00:54:38.332Z,14.73
2018-06-24T00:55:38.339Z,14.72
2018-06-24T00:56:38.325Z,14.69
2018-06-24T00:57:38.365Z,14.69
2018-06-24T00:58:38.331Z,14.56
2018-06-24T00:59:38.365Z,14.56
2018-06-24T01:00:38.338Z,14.43
2018-06-24T01:01:38.338Z,14.25
2018-06-24T01:02:38.345Z,14.32
2018-06-24T01:03:38.335Z,14.31
2018-06-24T01:04:38.518Z,14.36
2018-06-24T01:05:38.355Z,14.4
2018-06-24T01:06:38.342Z,14.4
2018-06-24T01:07:38.339Z,14.45
2018-06-24T01:08:38.338Z,14.48
2018-06-24T01:09:38.354Z,14.49
2018-06-24T01:10:38.376Z,14.52
2018-06-24T01:11:38.342Z,14.53
2018-06-24T01:12:38.352Z,14.58
2018-06-24T01:13:38.420Z,14.6
2018-06-24T01:14:38.340Z,14.62
2018-06-24T01:15:38.357Z,14.64
2018-06-24T01:16:38.340Z,14.66
2018-06-24T01:17:38.352Z,14.63
2018-06-24T01:18:38.376Z,14.66
2018-06-24T01:19:38.362Z,14.55
2018-06-24T01:20:38.352Z,14.58
2018-06-24T01:21:38.356Z,14.59
2018-06-24T01:22:38.352Z,14.58
2018-06-24T01:23:38.523Z,14.56
2018-06-24T01:24:38.474Z,14.49
2018-06-24T01:25:38.362Z,14.49
2018-06-24T01:26:38.374Z,14.48
2018-06-24T01:27:38.368Z,14.51
2018-06-24T01:28:38.500Z,14.49
2018-06-24T01:29:38.341Z,14.49
2018-06-24T01:30:38.387Z,14.48
2018-06-24T01:31:38.354Z,14.48
2018-06-24T01:32:38.341Z,14.45
2018-06-24T01:33:38.421Z,14.45
2018-06-24T01:34:38.517Z,14.43
2018-06-24T01:35:38.370Z,14.45
2018-06-24T01:36:38.347Z,14.42
2018-06-24T01:37:38.536Z,14.4
2018-06-24T01:38:38.409Z,14.4
2018-06-24T01:39:38.345Z,14.39
2018-06-24T01:40:38.359Z,14.38
2018-06-24T01:41:38.360Z,14.39
2018-06-24T01:42:38.363Z,14.38
2018-06-24T01:43:38.377Z,14.4
2018-06-24T01:44:38.479Z,14.43
2018-06-24T01:45:38.383Z,14.4
2018-06-24T01:46:38.379Z,14.39
2018-06-24T01:47:38.740Z,14.35
2018-06-24T01:48:38.390Z,14.33
2018-06-24T01:49:38.382Z,14.33
2018-06-24T01:50:38.359Z,14.32
2018-06-24T01:51:38.364Z,14.31
2018-06-24T01:52:38.645Z,14.27
2018-06-24T01:53:38.389Z,14.27
2018-06-24T01:54:38.562Z,14.21
2018-06-24T01:55:38.406Z,14.22
2018-06-24T01:56:38.522Z,14.21
2018-06-24T01:57:38.427Z,14.22
2018-06-24T01:58:38.432Z,14.24
2018-06-24T01:59:38.374Z,14.27
2018-06-24T02:00:38.371Z,14.28
2018-06-24T02:01:38.364Z,14.27
2018-06-24T02:02:38.372Z,14.29
2018-06-24T02:03:38.369Z,14.27
2018-06-24T02:04:38.367Z,14.24
2018-06-24T02:05:38.383Z,14.24
2018-06-24T02:06:38.386Z,14.19
2018-06-24T02:07:38.368Z,14.19
2018-06-24T02:08:38.377Z,14.17
2018-06-24T02:09:38.383Z,14.18
2018-06-24T02:10:38.380Z,14.18
2018-06-24T02:11:38.432Z,14.14
2018-06-24T02:12:38.369Z,14.14
2018-06-24T02:13:38.379Z,14.15
2018-06-24T02:14:38.366Z,14.12
2018-06-24T02:15:38.554Z,14.12
2018-06-24T02:16:38.531Z,14.14
2018-06-24T02:17:38.385Z,14.14
2018-06-24T02:18:38.449Z,14.12
2018-06-24T02:19:38.408Z,14.11
2018-06-24T02:20:38.426Z,14.07
2018-06-24T02:21:38.386Z,14.07
2018-06-24T02:22:38.385Z,14.05
2018-06-24T02:23:38.526Z,14.05
2018-06-24T02:24:38.430Z,14.04
2018-06-24T02:25:38.410Z,13.97
2018-06-24T02:26:38.373Z,13.97
2018-06-24T02:27:38.405Z,13.98
2018-06-24T02:28:38.600Z,13.98
2018-06-24T02:29:38.479Z,14
2018-06-24T02:30:38.424Z,13.98
2018-06-24T02:31:38.420Z,14
2018-06-24T02:32:38.407Z,13.98
2018-06-24T02:33:38.448Z,13.94
2018-06-24T02:34:38.388Z,13.94
2018-06-24T02:35:38.477Z,13.94
2018-06-24T02:36:38.405Z,13.91
2018-06-24T02:37:38.403Z,13.93
2018-06-24T02:38:38.393Z,13.93
2018-06-24T02:39:38.457Z,13.9
2018-06-24T02:40:38.396Z,13.91
2018-06-24T02:41:38.388Z,13.9
2018-06-24T02:42:38.567Z,13.9
2018-06-24T02:43:38.423Z,13.93
2018-06-24T02:44:38.523Z,13.94
2018-06-24T02:45:38.478Z,13.93
2018-06-24T02:46:38.416Z,13.93
2018-06-24T02:47:38.726Z,13.89
2018-06-24T02:48:38.739Z,13.87
2018-06-24T02:49:38.516Z,13.9
2018-06-24T02:50:38.499Z,13.86
2018-06-24T02:51:38.434Z,13.87
2018-06-24T02:52:38.473Z,13.9
2018-06-24T02:53:38.652Z,13.84
2018-06-24T02:54:38.397Z,13.86
2018-06-24T02:55:38.415Z,13.8
2018-06-24T02:56:38.410Z,13.79
2018-06-24T02:57:38.405Z,13.76
2018-06-24T02:58:38.443Z,13.73
2018-06-24T02:59:38.409Z,13.74
2018-06-24T03:00:38.447Z,13.73
2018-06-24T03:01:38.423Z,13.73
2018-06-24T03:02:38.546Z,13.74
2018-06-24T03:03:38.464Z,13.72
2018-06-24T03:04:38.592Z,13.73
2018-06-24T03:05:38.427Z,13.73
2018-06-24T03:06:38.398Z,13.73
2018-06-24T03:07:38.403Z,13.73
2018-06-24T03:08:38.416Z,13.76
2018-06-24T03:09:38.404Z,13.74
2018-06-24T03:10:38.432Z,13.76
2018-06-24T03:11:38.405Z,13.74
2018-06-24T03:12:38.414Z,13.74
2018-06-24T03:13:38.421Z,13.74
2018-06-24T03:14:38.413Z,13.77
2018-06-24T03:15:38.414Z,13.76
2018-06-24T03:16:38.467Z,13.77
2018-06-24T03:17:38.431Z,13.76
2018-06-24T03:18:38.416Z,13.79
2018-06-24T03:19:38.411Z,13.76
2018-06-24T03:20:38.425Z,13.8
2018-06-24T03:21:38.428Z,13.8
2018-06-24T03:22:38.403Z,13.79
2018-06-24T03:23:38.429Z,13.79
2018-06-24T03:24:38.450Z,13.8
2018-06-24T03:25:38.449Z,13.82
2018-06-24T03:26:38.540Z,13.82
2018-06-24T03:27:38.623Z,13.82
2018-06-24T03:28:38.435Z,13.82
2018-06-24T03:29:38.450Z,13.83
2018-06-24T03:30:38.433Z,13.83
2018-06-24T03:31:38.464Z,13.83
2018-06-24T03:32:38.419Z,13.84
2018-06-24T03:33:38.420Z,13.84
2018-06-24T03:34:38.424Z,13.8
2018-06-24T03:35:38.420Z,13.77
2018-06-24T03:36:38.430Z,13.79
2018-06-24T03:37:38.427Z,13.79
2018-06-24T03:38:38.434Z,13.79
2018-06-24T03:39:38.457Z,13.79
2018-06-24T03:40:38.432Z,13.79
2018-06-24T03:41:38.431Z,13.69
2018-06-24T03:42:38.435Z,13.7
2018-06-24T03:43:38.416Z,13.74
2018-06-24T03:44:38.451Z,13.73
2018-06-24T03:45:38.429Z,13.73
2018-06-24T03:46:38.450Z,13.76
2018-06-24T03:47:38.427Z,13.77
2018-06-24T03:48:38.424Z,13.76
2018-06-24T03:49:38.545Z,13.74
2018-06-24T03:50:38.438Z,13.7
2018-06-24T03:51:38.637Z,13.69
2018-06-24T03:52:38.517Z,13.69
2018-06-24T03:53:38.463Z,13.69
2018-06-24T03:54:38.427Z,13.67
2018-06-24T03:55:38.572Z,13.69
2018-06-24T03:56:38.456Z,13.67
2018-06-24T03:57:38.437Z,13.64
2018-06-24T03:58:38.593Z,13.63
2018-06-24T03:59:38.459Z,13.62
2018-06-24T04:00:38.423Z,13.63
2018-06-24T04:01:38.528Z,13.6
2018-06-24T04:02:38.625Z,13.57
2018-06-24T04:03:38.479Z,13.62
2018-06-24T04:04:38.588Z,13.62
2018-06-24T04:05:38.444Z,13.64
2018-06-24T04:06:38.497Z,13.66
2018-06-24T04:07:38.440Z,13.66
2018-06-24T04:08:38.496Z,13.69
2018-06-24T04:09:38.531Z,13.7
2018-06-24T04:10:38.464Z,13.73
2018-06-24T04:11:38.575Z,13.74
2018-06-24T04:12:38.451Z,13.76
2018-06-24T04:13:38.502Z,13.74
2018-06-24T04:14:38.457Z,13.74
2018-06-24T04:15:38.454Z,13.77
2018-06-24T04:16:38.471Z,13.76
2018-06-24T04:17:38.473Z,13.79
2018-06-24T04:18:38.453Z,13.77
2018-06-24T04:19:38.461Z,13.76
2018-06-24T04:20:38.449Z,13.8
2018-06-24T04:21:38.438Z,13.8
2018-06-24T04:22:38.460Z,13.84
2018-06-24T04:23:38.447Z,13.87
2018-06-24T04:24:38.432Z,13.91
2018-06-24T04:25:38.549Z,13.91
2018-06-24T04:26:38.443Z,13.97
2018-06-24T04:27:38.449Z,14
2018-06-24T04:28:38.450Z,13.97
2018-06-24T04:29:38.443Z,13.98
2018-06-24T04:30:38.445Z,14
2018-06-24T04:31:38.458Z,14.02
2018-06-24T04:32:38.478Z,14.04
2018-06-24T04:33:38.476Z,14.02
2018-06-24T04:34:38.537Z,14.01
2018-06-24T04:35:38.546Z,14.01
2018-06-24T04:36:38.591Z,14.02
2018-06-24T04:37:38.489Z,14.05
2018-06-24T04:38:38.469Z,14.1
2018-06-24T04:39:38.453Z,14.1
2018-06-24T04:40:38.451Z,14.15
2018-06-24T04:41:38.490Z,14.19
2018-06-24T04:42:38.510Z,14.24
2018-06-24T04:43:38.454Z,14.22
2018-06-24T04:44:38.509Z,14.25
2018-06-24T04:45:38.477Z,14.28
2018-06-24T04:46:38.480Z,14.28
2018-06-24T04:47:38.512Z,14.31
2018-06-24T04:48:38.491Z,14.31
2018-06-24T04:49:38.469Z,14.33
2018-06-24T04:50:38.475Z,14.33
2018-06-24T04:51:38.687Z,14.38
2018-06-24T04:52:38.651Z,14.38
2018-06-24T04:53:38.467Z,14.35
2018-06-24T04:54:38.489Z,14.32
2018-06-24T04:55:38.500Z,14.36
2018-06-24T04:56:38.640Z,14.38
2018-06-24T04:57:38.491Z,14.38
2018-06-24T04:58:38.467Z,14.39
2018-06-24T04:59:38.476Z,14.4
2018-06-24T05:00:38.508Z,14.42
2018-06-24T05:01:38.460Z,14.46
2018-06-24T05:02:38.469Z,14.48
2018-06-24T05:03:38.541Z,14.51
2018-06-24T05:04:38.478Z,14.52
2018-06-24T05:05:38.525Z,14.52
2018-06-24T05:06:38.470Z,14.58
2018-06-24T05:07:38.500Z,14.52
2018-06-24T05:08:38.476Z,14.55
2018-06-24T05:09:38.473Z,14.58
2018-06-24T05:10:38.535Z,14.59
2018-06-24T05:11:38.511Z,14.63
2018-06-24T05:12:38.720Z,14.64
2018-06-24T05:13:38.565Z,14.67
2018-06-24T05:14:38.541Z,14.7
2018-06-24T05:15:38.568Z,14.72
2018-06-24T05:16:38.532Z,14.7
2018-06-24T05:17:38.606Z,14.76
2018-06-24T05:18:38.512Z,14.79
2018-06-24T05:19:38.514Z,14.8
2018-06-24T05:20:38.525Z,14.8
2018-06-24T05:21:38.497Z,14.79
2018-06-24T05:22:38.542Z,14.79
2018-06-24T05:23:38.498Z,14.84
2018-06-24T05:24:38.553Z,14.84
2018-06-24T05:25:38.522Z,14.91
2018-06-24T05:26:38.529Z,14.9
2018-06-24T05:27:38.927Z,14.94
2018-06-24T05:28:38.479Z,14.95
2018-06-24T05:29:38.477Z,14.98
2018-06-24T05:30:38.480Z,15.02
2018-06-24T05:31:38.515Z,15.04
2018-06-24T05:32:38.500Z,15.05
2018-06-24T05:33:38.492Z,15.08
2018-06-24T05:34:38.500Z,15.05
2018-06-24T05:35:38.671Z,15.11
2018-06-24T05:36:38.538Z,15.12
2018-06-24T05:37:38.511Z,15.15
2018-06-24T05:38:38.488Z,15.15
2018-06-24T05:39:38.515Z,15.19
2018-06-24T05:40:38.523Z,15.22
2018-06-24T05:41:38.506Z,15.26
2018-06-24T05:42:38.504Z,15.26
2018-06-24T05:43:38.520Z,15.25
2018-06-24T05:44:38.522Z,15.29
2018-06-24T05:45:38.506Z,15.31
2018-06-24T05:46:38.486Z,15.31
2018-06-24T05:47:38.518Z,15.35
2018-06-24T05:48:38.494Z,15.35
2018-06-24T05:49:38.480Z,15.39
2018-06-24T05:50:38.711Z,15.42
2018-06-24T05:51:38.510Z,15.41
2018-06-24T05:52:38.551Z,15.43
2018-06-24T05:53:38.531Z,15.43
2018-06-24T05:54:38.522Z,15.49
2018-06-24T05:55:38.516Z,15.46
2018-06-24T05:56:38.870Z,15.5
2018-06-24T05:57:38.529Z,15.49
2018-06-24T05:58:38.723Z,15.5
2018-06-24T05:59:38.542Z,15.53
2018-06-24T06:00:38.505Z,15.41
2018-06-24T06:01:38.567Z,15.47
2018-06-24T06:02:38.517Z,15.5
2018-06-24T06:03:38.512Z,15.54
2018-06-24T06:04:38.617Z,15.56
2018-06-24T06:05:38.525Z,15.6
2018-06-24T06:06:38.547Z,15.63
2018-06-24T06:07:38.529Z,15.66
2018-06-24T06:08:38.696Z,15.71
2018-06-24T06:09:38.565Z,15.74
2018-06-24T06:10:38.532Z,15.78
2018-06-24T06:11:38.521Z,15.7
2018-06-24T06:12:38.724Z,15.69
2018-06-24T06:13:38.512Z,15.69
2018-06-24T06:14:38.525Z,15.71
2018-06-24T06:15:38.553Z,15.71
2018-06-24T06:16:38.501Z,15.66
2018-06-24T06:17:38.612Z,15.71
2018-06-24T06:18:38.507Z,15.76
2018-06-24T06:19:38.521Z,15.78
2018-06-24T06:20:38.511Z,15.82
2018-06-24T06:21:38.644Z,15.82
2018-06-24T06:22:38.516Z,15.88
2018-06-24T06:23:38.505Z,15.9
2018-06-24T06:24:38.626Z,15.94
2018-06-24T06:25:38.528Z,15.81
2018-06-24T06:26:38.616Z,15.88
2018-06-24T06:27:38.518Z,15.81
2018-06-24T06:28:38.563Z,15.84
2018-06-24T06:29:38.564Z,15.84
2018-06-24T06:30:38.562Z,15.76
2018-06-24T06:31:38.506Z,15.7
2018-06-24T06:32:38.536Z,15.76
2018-06-24T06:33:39.025Z,15.74
2018-06-24T06:34:38.582Z,15.77
2018-06-24T06:35:38.544Z,15.82
2018-06-24T06:36:38.554Z,15.85
2018-06-24T06:37:38.600Z,15.87
2018-06-24T06:38:38.545Z,15.87
2018-06-24T06:39:38.526Z,15.88
2018-06-24T06:40:38.560Z,15.92
2018-06-24T06:41:38.536Z,15.91
2018-06-24T06:42:38.561Z,15.98
2018-06-24T06:43:38.552Z,16.07
2018-06-24T06:44:38.526Z,16.05
2018-06-24T06:45:39.548Z,16.12
2018-06-24T06:46:38.535Z,16.14
2018-06-24T06:47:38.536Z,16.18
2018-06-24T06:48:38.507Z,16.19
2018-06-24T06:49:38.524Z,16.11
2018-06-24T06:50:38.533Z,16.14
2018-06-24T06:51:38.532Z,16.18
2018-06-24T06:52:38.520Z,16.16
2018-06-24T06:53:38.548Z,16.18
2018-06-24T06:54:38.525Z,16.15
2018-06-24T06:55:38.532Z,16.15
2018-06-24T06:56:38.535Z,16.16
2018-06-24T06:57:38.534Z,16.11
2018-06-24T06:58:38.554Z,16.08
2018-06-24T06:59:38.550Z,16.15
2018-06-24T07:00:38.565Z,16.21
2018-06-24T07:01:38.574Z,16.18
2018-06-24T07:02:38.709Z,16.11
2018-06-24T07:03:38.679Z,16.11
2018-06-24T07:04:38.542Z,16.11
2018-06-24T07:05:39.426Z,16.18
2018-06-24T07:06:38.611Z,16.24
2018-06-24T07:07:38.654Z,16.28
2018-06-24T07:08:38.544Z,16.24
2018-06-24T07:09:38.544Z,16.24
2018-06-24T07:10:38.556Z,16.28
2018-06-24T07:11:38.680Z,16.28
2018-06-24T07:12:38.760Z,16.29
2018-06-24T07:13:38.647Z,16.31
2018-06-24T07:14:38.944Z,16.32
2018-06-24T07:15:38.637Z,16.33
2018-06-24T07:16:38.574Z,16.36
2018-06-24T07:17:38.580Z,16.39
2018-06-24T07:18:38.587Z,16.4
2018-06-24T07:19:38.631Z,16.39
2018-06-24T07:20:38.600Z,16.35
2018-06-24T07:21:38.596Z,16.37
2018-06-24T07:22:38.624Z,16.39
2018-06-24T07:23:38.611Z,16.43
2018-06-24T07:24:38.655Z,16.47
2018-06-24T07:25:38.647Z,16.53
2018-06-24T07:26:38.663Z,16.5
2018-06-24T07:27:38.846Z,16.53
2018-06-24T07:28:38.669Z,16.5
2018-06-24T07:29:38.663Z,16.49
2018-06-24T07:30:38.638Z,16.54
2018-06-24T07:31:38.627Z,16.5
2018-06-24T07:32:38.673Z,16.54
2018-06-24T07:33:39.211Z,16.53
2018-06-24T07:34:38.707Z,16.57
2018-06-24T07:35:38.727Z,16.59
2018-06-24T07:36:38.687Z,16.54
2018-06-24T07:37:38.677Z,16.59
2018-06-24T07:38:38.915Z,16.62
2018-06-24T07:39:38.904Z,16.63
2018-06-24T07:40:38.742Z,16.68
2018-06-24T07:41:38.726Z,16.73
2018-06-24T07:42:38.754Z,16.74
2018-06-24T07:43:38.757Z,16.8
2018-06-24T07:44:38.724Z,16.84
2018-06-24T07:45:38.731Z,16.87
2018-06-24T07:46:38.737Z,16.88
2018-06-24T07:47:38.911Z,16.87
2018-06-24T07:48:38.741Z,16.88
2018-06-24T07:49:38.750Z,16.91
2018-06-24T07:50:38.767Z,16.92
2018-06-24T07:51:38.717Z,16.94
2018-06-24T07:52:38.747Z,16.92
2018-06-24T07:53:38.797Z,16.97
2018-06-24T07:54:38.825Z,16.99
2018-06-24T07:55:38.829Z,17.01
2018-06-24T07:56:38.818Z,17.07
2018-06-24T07:57:38.833Z,17.08
2018-06-24T07:58:38.715Z,17.09
2018-06-24T07:59:38.724Z,17.09
2018-06-24T08:00:38.733Z,17.14
2018-06-24T08:01:38.723Z,17.14
2018-06-24T08:02:38.743Z,17.16
2018-06-24T08:03:38.722Z,17.18
2018-06-24T08:04:38.728Z,17.26
2018-06-24T08:05:38.732Z,17.29
2018-06-24T08:06:38.733Z,17.27
2018-06-24T08:07:38.745Z,17.22
2018-06-24T08:08:38.758Z,17.26
2018-06-24T08:09:38.804Z,17.32
2018-06-24T08:10:38.758Z,17.3
2018-06-24T08:11:38.736Z,17.35
2018-06-24T08:12:38.746Z,17.36
2018-06-24T08:13:39.985Z,17.37
2018-06-24T08:14:38.772Z,17.26
2018-06-24T08:15:38.913Z,17.26
2018-06-24T08:16:38.743Z,17.25
2018-06-24T08:17:38.892Z,17.25
2018-06-24T08:18:38.883Z,17.19
2018-06-24T08:19:38.892Z,17.19
2018-06-24T08:20:38.812Z,17.22
2018-06-24T08:21:38.577Z,17.29
2018-06-24T08:22:38.920Z,17.36
2018-06-24T08:23:38.610Z,17.29
2018-06-24T08:24:38.789Z,17.35
2018-06-24T08:25:38.600Z,17.33
2018-06-24T08:26:38.924Z,17.35
2018-06-24T08:27:38.613Z,17.39
2018-06-24T08:28:38.588Z,17.43
2018-06-24T08:29:38.672Z,17.47
2018-06-24T08:30:38.637Z,17.5
2018-06-24T08:31:39.149Z,17.44
2018-06-24T08:32:38.877Z,17.42
2018-06-24T08:33:38.625Z,17.4
2018-06-24T08:34:38.592Z,17.46
2018-06-24T08:35:39.965Z,17.49
2018-06-24T08:36:38.662Z,17.5
2018-06-24T08:37:38.614Z,17.47
2018-06-24T08:38:42.917Z,17.54
2018-06-24T08:39:38.899Z,17.56
2018-06-24T08:40:38.612Z,17.63
2018-06-24T08:41:38.706Z,17.66
2018-06-24T08:42:38.960Z,17.69
2018-06-24T08:43:38.737Z,17.66
2018-06-24T08:44:38.988Z,17.69
2018-06-24T08:45:38.622Z,17.71
2018-06-24T08:46:39.262Z,17.76
2018-06-24T08:47:39.126Z,17.78
2018-06-24T08:48:38.611Z,17.81
2018-06-24T08:49:38.622Z,17.78
2018-06-24T08:50:38.781Z,17.76
2018-06-24T08:51:38.626Z,17.73
2018-06-24T08:52:38.784Z,17.71
2018-06-24T08:53:38.824Z,17.74
2018-06-24T08:54:38.804Z,17.78
2018-06-24T08:55:38.613Z,17.74
2018-06-24T08:56:38.816Z,17.74
2018-06-24T08:57:38.826Z,17.82
2018-06-24T08:58:38.832Z,17.82
2018-06-24T08:59:38.627Z,17.87
2018-06-24T09:00:38.948Z,17.91
2018-06-24T09:01:38.769Z,17.91
2018-06-24T09:02:38.762Z,17.94
2018-06-24T09:03:38.606Z,17.92
2018-06-24T09:04:38.673Z,17.92
2018-06-24T09:05:38.777Z,17.97
2018-06-24T09:06:38.796Z,17.99
2018-06-24T09:07:38.788Z,18.01
2018-06-24T09:08:38.707Z,17.98
2018-06-24T09:09:38.624Z,17.97
2018-06-24T09:10:38.616Z,18.01
2018-06-24T09:11:38.725Z,18.04
2018-06-24T09:12:38.625Z,18.01
2018-06-24T09:13:38.919Z,18.01
2018-06-24T09:14:39.762Z,17.94
2018-06-24T09:15:40.302Z,17.92
2018-06-24T09:16:38.689Z,17.97
2018-06-24T09:17:38.784Z,17.98
2018-06-24T09:18:38.695Z,18.02
2018-06-24T09:19:38.799Z,18.02
2018-06-24T09:20:38.804Z,18.06
2018-06-24T09:21:38.782Z,18.05
2018-06-24T09:22:38.792Z,18.11
2018-06-24T09:23:38.804Z,18.15
2018-06-24T09:24:38.808Z,18.19
2018-06-24T09:25:38.816Z,18.22
2018-06-24T09:26:40.868Z,18.19
2018-06-24T09:27:39.455Z,18.22
2018-06-24T09:28:38.634Z,18.26
2018-06-24T09:29:38.844Z,18.23
2018-06-24T09:30:38.786Z,18.05
2018-06-24T09:31:38.657Z,18.08
2018-06-24T09:32:38.813Z,18.09
2018-06-24T09:33:38.775Z,18.16
2018-06-24T09:34:38.644Z,18.2
2018-06-24T09:35:38.793Z,18.23
2018-06-24T09:36:38.638Z,18.25
2018-06-24T09:37:38.686Z,18.23
2018-06-24T09:39:38.816Z,18.17
2018-06-24T09:40:38.681Z,18.13
2018-06-24T09:41:38.829Z,18.13
2018-06-24T09:42:38.763Z,18.22
2018-06-24T09:43:38.721Z,18.23
2018-06-24T09:44:38.740Z,18.29
2018-06-24T09:45:38.663Z,18.3
2018-06-24T09:46:38.693Z,18.35
2018-06-24T09:47:38.773Z,18.42
2018-06-24T09:48:38.633Z,18.44
2018-06-24T09:49:38.691Z,18.52
2018-06-24T09:50:38.782Z,18.52
2018-06-24T09:51:38.741Z,18.59
2018-06-24T09:52:38.798Z,18.63
2018-06-24T09:53:38.713Z,18.6
2018-06-24T09:54:38.747Z,18.71
2018-06-24T09:55:38.671Z,18.74
2018-06-24T09:56:38.789Z,18.74
2018-06-24T09:57:38.651Z,18.74
2018-06-24T09:58:38.718Z,18.78
2018-06-24T09:59:38.756Z,18.88
2018-06-24T10:00:39.233Z,18.88
2018-06-24T10:01:38.719Z,18.95
2018-06-24T10:02:38.761Z,18.98
2018-06-24T10:03:38.750Z,18.92
2018-06-24T10:04:39.607Z,18.94
2018-06-24T10:05:38.890Z,18.97
2018-06-24T10:06:38.723Z,18.89
2018-06-24T10:07:38.699Z,18.85
2018-06-24T10:08:38.808Z,18.81
2018-06-24T10:09:38.734Z,18.85
2018-06-24T10:10:38.763Z,18.88
2018-06-24T10:11:38.936Z,18.94
2018-06-24T10:12:38.826Z,18.97
2018-06-24T10:13:38.718Z,19.01
2018-06-24T10:14:38.981Z,19.03
2018-06-24T10:15:38.868Z,19.06
2018-06-24T10:16:38.833Z,19.03
2018-06-24T10:17:38.878Z,18.97
2018-06-24T10:18:39.246Z,18.95
2018-06-24T10:19:42.388Z,18.97
2018-06-24T10:20:46.195Z,18.92
2018-06-24T10:21:38.831Z,18.89
2018-06-24T10:22:38.803Z,18.92
2018-06-24T10:23:38.803Z,18.89
2018-06-24T10:24:39.434Z,18.85
2018-06-24T10:25:38.885Z,18.84
2018-06-24T10:26:39.061Z,18.78
2018-06-24T10:27:38.977Z,18.82
2018-06-24T10:28:38.865Z,18.81
2018-06-24T10:29:38.884Z,18.88
2018-06-24T10:30:38.840Z,18.87
2018-06-24T10:31:38.941Z,18.91
2018-06-24T10:32:38.986Z,18.98
2018-06-24T10:33:38.829Z,18.97
2018-06-24T10:34:38.896Z,19.05
2018-06-24T10:35:38.998Z,18.95
2018-06-24T10:36:38.862Z,19.02
2018-06-24T10:37:38.794Z,19.21
2018-06-24T10:38:38.913Z,19.26
2018-06-24T10:39:39.031Z,19.29
2018-06-24T10:40:38.831Z,19.4
2018-06-24T10:41:38.877Z,19.4
2018-06-24T10:42:38.821Z,19.53
2018-06-24T10:43:38.956Z,19.56
2018-06-24T10:44:38.832Z,19.54
2018-06-24T10:45:38.819Z,19.44
2018-06-24T10:46:39.055Z,19.54
2018-06-24T10:47:38.873Z,19.68
2018-06-24T10:48:38.924Z,19.78
2018-06-24T10:49:38.923Z,19.93
2018-06-24T10:50:38.843Z,19.77
2018-06-24T10:51:38.838Z,19.81
2018-06-24T10:52:38.864Z,19.79
2018-06-24T10:53:38.853Z,19.78
2018-06-24T10:54:38.856Z,19.77
2018-06-24T10:55:38.865Z,19.71
2018-06-24T10:56:38.892Z,19.78
2018-06-24T10:57:38.854Z,19.84
2018-06-24T10:58:38.988Z,19.81
2018-06-24T10:59:38.896Z,19.82
2018-06-24T11:00:38.752Z,19.78
2018-06-24T11:01:38.812Z,19.86
2018-06-24T11:02:38.880Z,19.79
2018-06-24T11:03:38.764Z,19.79
2018-06-24T11:04:38.715Z,19.71
2018-06-24T11:05:38.797Z,19.74
2018-06-24T11:06:38.692Z,19.77
2018-06-24T11:07:38.717Z,19.82
2018-06-24T11:08:38.948Z,19.99
2018-06-24T11:09:38.832Z,19.89
2018-06-24T11:10:38.721Z,19.96
2018-06-24T11:11:38.835Z,20.02
2018-06-24T11:12:38.711Z,20.05
2018-06-24T11:13:38.702Z,20.09
2018-06-24T11:14:38.757Z,20.09
2018-06-24T11:15:38.709Z,20.06
2018-06-24T11:16:38.691Z,20.06
2018-06-24T11:17:39.903Z,20.12
2018-06-24T11:18:38.696Z,20.22
2018-06-24T11:19:38.688Z,20.19
2018-06-24T11:20:38.892Z,20.33
2018-06-24T11:21:38.708Z,20.22
2018-06-24T11:22:38.762Z,20.16
2018-06-24T11:23:38.818Z,20.29
2018-06-24T11:24:38.728Z,20.23
2018-06-24T11:25:38.715Z,20.27
2018-06-24T11:26:38.961Z,20.27
2018-06-24T11:27:38.704Z,20.33
2018-06-24T11:28:38.727Z,20.39
2018-06-24T11:29:38.998Z,20.4
2018-06-24T11:30:38.726Z,20.4
2018-06-24T11:31:38.711Z,20.41
2018-06-24T11:32:39.018Z,20.39
2018-06-24T11:33:38.704Z,20.39
2018-06-24T11:34:38.710Z,20.36
2018-06-24T11:35:38.821Z,20.29
2018-06-24T11:36:38.713Z,20.27
2018-06-24T11:37:38.712Z,20.27
2018-06-24T11:38:38.924Z,20.19
2018-06-24T11:39:38.824Z,20.22
2018-06-24T11:40:38.721Z,20.2
2018-06-24T11:41:39.886Z,20.2
2018-06-24T11:42:38.769Z,20.24
2018-06-24T11:43:38.787Z,20.11
2018-06-24T11:44:38.874Z,20.11
2018-06-24T11:45:38.724Z,20.23
2018-06-24T11:46:38.734Z,20.3
2018-06-24T11:47:38.878Z,20.41
2018-06-24T11:48:38.719Z,20.48
2018-06-24T11:49:38.741Z,20.57
2018-06-24T11:50:38.803Z,20.61
2018-06-24T11:51:38.730Z,20.67
2018-06-24T11:52:38.744Z,20.67
2018-06-24T11:53:38.853Z,20.64
2018-06-24T11:54:38.737Z,20.65
2018-06-24T11:55:38.728Z,20.65
2018-06-24T11:56:38.955Z,20.67
2018-06-24T11:57:38.775Z,20.65
2018-06-24T11:58:38.776Z,20.7
2018-06-24T11:59:39.201Z,20.64
2018-06-24T12:00:38.787Z,20.57
2018-06-24T12:01:38.738Z,20.55
2018-06-24T12:02:39.062Z,20.61
2018-06-24T12:03:38.794Z,20.67
2018-06-24T12:04:38.747Z,20.44
2018-06-24T12:05:38.906Z,20.61
2018-06-24T12:06:38.728Z,20.61
2018-06-24T12:07:38.762Z,20.65
2018-06-24T12:08:39.029Z,20.75
2018-06-24T12:09:38.772Z,20.75
2018-06-24T12:10:38.751Z,20.78
2018-06-24T12:11:39.277Z,20.84
2018-06-24T12:12:38.765Z,20.85
2018-06-24T12:13:38.884Z,20.91
2018-06-24T12:14:39.308Z,20.98
2018-06-24T12:15:38.734Z,21.05
2018-06-24T12:16:38.845Z,21.05
2018-06-24T12:17:38.883Z,21.09
2018-06-24T12:18:38.776Z,21.13
2018-06-24T12:19:38.758Z,21.2
2018-06-24T12:20:38.902Z,21.26
2018-06-24T12:21:38.807Z,21.29
2018-06-24T12:22:38.765Z,21.29
2018-06-24T12:23:41.279Z,21.2
2018-06-24T12:24:38.753Z,21.36
2018-06-24T12:25:38.759Z,21.24
2018-06-24T12:26:38.911Z,21.16
2018-06-24T12:27:38.752Z,21.12
2018-06-24T12:28:38.778Z,21.05
2018-06-24T12:29:38.743Z,21.17
2018-06-24T12:30:38.973Z,21.2
2018-06-24T12:31:38.745Z,21.32
2018-06-24T12:32:38.988Z,21.39
2018-06-24T12:33:38.780Z,21.4
2018-06-24T12:34:38.760Z,21.32
2018-06-24T12:35:38.751Z,21.36
2018-06-24T12:36:38.760Z,21.3
2018-06-24T12:37:38.769Z,21.32
2018-06-24T12:38:38.925Z,21.19
2018-06-24T12:39:38.905Z,21.17
2018-06-24T12:40:38.800Z,20.92
2018-06-24T12:41:38.881Z,21.06
2018-06-24T12:42:38.788Z,21.1
2018-06-24T12:43:38.767Z,21.15
2018-06-24T12:44:38.958Z,21.16
2018-06-24T12:45:38.778Z,20.92
2018-06-24T12:46:38.801Z,21.01
2018-06-24T12:47:38.781Z,21.05
2018-06-24T12:48:38.961Z,21.07
2018-06-24T12:49:38.792Z,21.13
2018-06-24T12:50:38.948Z,21.15
2018-06-24T12:51:38.835Z,21.2
2018-06-24T12:52:39.117Z,21.22
2018-06-24T12:53:38.927Z,21.23
2018-06-24T12:54:38.865Z,21.24
2018-06-24T12:55:38.817Z,21.27
2018-06-24T12:56:38.781Z,21.29